Time,TemperatureF,DewpointF,PressureIn,WindDirection,WindDirectionDegrees,WindSpeedMPH,WindSpeedGustMPH,Humidity,HourlyPrecipIn,Conditions,Clouds,dailyrainin,SolarRadiationWatts/m^2,SoftwareType,DateUTC
2013-01-13 00:03:00,60.0,54.0,-100.00,South,175,3.0,10.0,81,0.00,,,0.11,0.000000,,2013-01-13 05:03:00,
2013-01-13 00:33:00,60.0,54.0,-100.00,ESE,117,2.0,7.0,80,0.00,,,0.08,0.000000,,2013-01-13 05:33:00,
2013-01-13 00:42:00,60.0,54.0,-100.00,ESE,117,2.0,7.0,80,0.00,,,0.08,0.000000,,2013-01-13 05:42:00,
2013-01-13 00:53:00,60.0,54.0,-100.00,ESE,117,2.0,7.0,80,0.00,,,0.08,0.000000,,2013-01-13 05:53:00,
2013-01-13 01:03:00,60.0,54.0,-100.00,ESE,117,2.0,7.0,80,0.00,,,0.08,0.000000,,2013-01-13 06:03:00,
2013-01-13 01:33:00,62.0,56.0,-100.00,South,170,3.0,9.0,80,0.00,,,0.06,0.000000,,2013-01-13 06:33:00,
2013-01-13 01:42:00,62.0,56.0,-100.00,South,170,3.0,9.0,80,0.00,,,0.06,0.000000,,2013-01-13 06:42:00,
2013-01-13 01:52:00,62.0,56.0,-100.00,South,170,3.0,9.0,80,0.00,,,0.06,0.000000,,2013-01-13 06:52:00,
2013-01-13 02:02:00,62.0,56.0,-100.00,South,170,3.0,9.0,80,0.00,,,0.06,0.000000,,2013-01-13 07:02:00,
2013-01-13 02:33:00,62.0,52.0,-100.00,SSW,196,6.0,14.0,70,0.00,,,0.04,0.000000,,2013-01-13 07:33:00,
2013-01-13 02:42:00,62.0,52.0,-100.00,SSW,196,6.0,14.0,70,0.00,,,0.04,0.000000,,2013-01-13 07:42:00,
2013-01-13 02:53:00,62.0,52.0,-100.00,SSW,196,6.0,14.0,70,0.00,,,0.04,0.000000,,2013-01-13 07:53:00,
2013-01-13 03:02:00,62.0,52.0,-100.00,SSW,196,6.0,14.0,70,0.00,,,0.04,0.000000,,2013-01-13 08:02:00,
2013-01-13 03:32:00,62.0,52.0,-100.00,SSE,163,4.0,14.0,71,0.00,,,0.04,0.000000,,2013-01-13 08:32:00,
2013-01-13 03:42:00,62.0,52.0,-100.00,SSE,163,4.0,14.0,71,0.00,,,0.04,0.000000,,2013-01-13 08:42:00,
2013-01-13 03:53:00,62.0,52.0,-100.00,SSE,163,4.0,14.0,71,0.00,,,0.04,0.000000,,2013-01-13 08:53:00,
2013-01-13 04:02:00,62.0,52.0,-100.00,SSE,163,4.0,14.0,71,0.00,,,0.04,0.000000,,2013-01-13 09:02:00,
2013-01-13 04:32:00,61.0,51.0,-100.00,SE,129,4.0,11.0,70,0.00,,,0.04,0.000000,,2013-01-13 09:32:00,
2013-01-13 04:43:00,61.0,51.0,-100.00,SE,129,4.0,11.0,70,0.00,,,0.04,0.000000,,2013-01-13 09:43:00,
2013-01-13 04:53:00,61.0,51.0,-100.00,SE,129,4.0,11.0,70,0.00,,,0.04,0.000000,,2013-01-13 09:53:00,
2013-01-13 05:03:00,61.0,51.0,-100.00,SE,129,4.0,11.0,70,0.00,,,0.04,0.000000,,2013-01-13 10:03:00,
2013-01-13 05:32:00,63.0,53.0,-100.00,SE,124,5.0,12.0,69,0.00,,,0.04,0.000000,,2013-01-13 10:32:00,
2013-01-13 05:42:00,63.0,53.0,-100.00,SE,124,5.0,12.0,69,0.00,,,0.04,0.000000,,2013-01-13 10:42:00,
2013-01-13 05:53:00,63.0,53.0,-100.00,SE,124,5.0,12.0,69,0.00,,,0.04,0.000000,,2013-01-13 10:53:00,
2013-01-13 06:02:00,63.0,53.0,-100.00,SE,124,5.0,12.0,69,0.00,,,0.04,0.000000,,2013-01-13 11:02:00,
2013-01-13 06:33:00,63.0,52.0,-100.00,SE,141,5.0,16.0,68,0.00,,,0.03,0.000000,,2013-01-13 11:33:00,
2013-01-13 06:43:00,63.0,52.0,-100.00,SE,141,5.0,16.0,68,0.00,,,0.03,0.000000,,2013-01-13 11:43:00,
2013-01-13 06:53:00,63.0,52.0,-100.00,SE,141,5.0,16.0,68,0.00,,,0.03,0.000000,,2013-01-13 11:53:00,
2013-01-13 07:03:00,63.0,52.0,-100.00,SE,141,5.0,16.0,68,0.00,,,0.03,0.000000,,2013-01-13 12:03:00,
2013-01-13 07:33:00,63.0,53.0,-100.00,South,182,4.0,15.0,69,0.00,,,0.02,0.000000,,2013-01-13 12:33:00,
2013-01-13 07:42:00,63.0,53.0,-100.00,South,182,4.0,15.0,69,0.00,,,0.02,0.000000,,2013-01-13 12:42:00,
2013-01-13 07:53:00,63.0,53.0,-100.00,South,182,4.0,15.0,69,0.00,,,0.02,0.000000,,2013-01-13 12:53:00,
2013-01-13 08:03:00,63.0,53.0,-100.00,South,182,4.0,15.0,69,0.00,,,0.02,0.000000,,2013-01-13 13:03:00,
2013-01-13 08:33:00,63.0,52.0,-100.00,South,170,2.0,16.0,68,0.00,,,0.01,5.000000,,2013-01-13 13:33:00,
2013-01-13 08:43:00,63.0,52.0,-100.00,South,170,2.0,16.0,68,0.00,,,0.01,5.000000,,2013-01-13 13:43:00,
2013-01-13 08:53:00,63.0,52.0,-100.00,South,170,2.0,16.0,68,0.00,,,0.01,5.000000,,2013-01-13 13:53:00,
2013-01-13 09:03:00,63.0,52.0,-100.00,South,170,2.0,16.0,68,0.00,,,0.01,5.000000,,2013-01-13 14:03:00,
2013-01-13 09:33:00,62.0,53.0,-100.00,NE,41,2.0,6.0,73,0.00,,,0.00,51.000000,,2013-01-13 14:33:00,
2013-01-13 09:43:00,62.0,53.0,-100.00,NE,41,2.0,6.0,73,0.00,,,0.00,51.000000,,2013-01-13 14:43:00,
2013-01-13 09:53:00,62.0,53.0,-100.00,NE,41,2.0,6.0,73,0.00,,,0.00,51.000000,,2013-01-13 14:53:00,
2013-01-13 10:03:00,62.0,53.0,-100.00,NE,41,2.0,6.0,73,0.00,,,0.00,51.000000,,2013-01-13 15:03:00,
2013-01-13 10:33:00,63.0,55.0,-100.00,SE,141,3.0,6.0,75,0.00,,,0.00,51.000000,,2013-01-13 15:33:00,
2013-01-13 10:43:00,63.0,55.0,-100.00,SE,141,3.0,6.0,75,0.00,,,0.00,51.000000,,2013-01-13 15:43:00,
2013-01-13 10:53:00,63.0,55.0,-100.00,SE,141,3.0,6.0,75,0.00,,,0.00,51.000000,,2013-01-13 15:53:00,
2013-01-13 11:03:00,63.0,55.0,-100.00,SE,141,3.0,6.0,75,0.00,,,0.00,51.000000,,2013-01-13 16:03:00,
2013-01-13 11:33:00,61.0,55.0,-100.00,SSE,166,1.0,6.0,81,0.00,,,0.00,39.000000,,2013-01-13 16:33:00,
2013-01-13 11:43:00,61.0,55.0,-100.00,SSE,166,1.0,6.0,81,0.00,,,0.00,39.000000,,2013-01-13 16:43:00,
2013-01-13 11:53:00,61.0,55.0,-100.00,SSE,166,1.0,6.0,81,0.00,,,0.00,39.000000,,2013-01-13 16:53:00,
2013-01-13 12:03:00,61.0,55.0,-100.00,SSE,166,1.0,6.0,81,0.00,,,0.00,39.000000,,2013-01-13 17:03:00,
2013-01-13 12:33:00,61.0,59.0,-100.00,East,97,1.0,5.0,93,0.01,,,0.01,111.000000,,2013-01-13 17:33:00,
2013-01-13 12:43:00,61.0,59.0,-100.00,East,97,1.0,5.0,93,0.01,,,0.01,111.000000,,2013-01-13 17:43:00,
2013-01-13 12:53:00,61.0,59.0,-100.00,East,97,1.0,5.0,93,0.01,,,0.01,111.000000,,2013-01-13 17:53:00,
2013-01-13 13:03:00,61.0,59.0,-100.00,East,97,1.0,5.0,93,0.01,,,0.01,111.000000,,2013-01-13 18:03:00,
2013-01-13 13:33:00,64.0,61.0,-100.00,East,81,2.0,5.0,90,0.00,,,0.01,146.000000,,2013-01-13 18:33:00,
2013-01-13 13:43:00,64.0,61.0,-100.00,East,81,2.0,5.0,90,0.00,,,0.01,146.000000,,2013-01-13 18:43:00,
2013-01-13 13:53:00,64.0,61.0,-100.00,East,81,2.0,5.0,90,0.00,,,0.01,146.000000,,2013-01-13 18:53:00,
2013-01-13 14:03:00,64.0,61.0,-100.00,East,81,2.0,5.0,90,0.00,,,0.01,146.000000,,2013-01-13 19:03:00,
2013-01-13 14:33:00,65.0,57.0,-100.00,SW,221,5.0,15.0,75,0.00,,,0.01,107.000000,,2013-01-13 19:33:00,
2013-01-13 14:43:00,65.0,57.0,-100.00,SW,221,5.0,15.0,75,0.00,,,0.01,107.000000,,2013-01-13 19:43:00,
2013-01-13 14:53:00,65.0,57.0,-100.00,SW,221,5.0,15.0,75,0.00,,,0.01,107.000000,,2013-01-13 19:53:00,
2013-01-13 15:03:00,65.0,57.0,-100.00,SW,221,5.0,15.0,75,0.00,,,0.01,107.000000,,2013-01-13 20:03:00,
2013-01-13 15:33:00,65.0,55.0,-100.00,South,180,4.0,15.0,70,0.00,,,0.01,115.000000,,2013-01-13 20:33:00,
2013-01-13 15:43:00,65.0,55.0,-100.00,South,180,4.0,15.0,70,0.00,,,0.01,115.000000,,2013-01-13 20:43:00,
2013-01-13 15:53:00,65.0,55.0,-100.00,South,180,4.0,15.0,70,0.00,,,0.01,115.000000,,2013-01-13 20:53:00,
2013-01-13 16:03:00,65.0,55.0,-100.00,South,180,4.0,15.0,70,0.00,,,0.01,115.000000,,2013-01-13 21:03:00,
2013-01-13 16:33:00,66.0,56.0,-100.00,SE,130,3.0,17.0,70,0.00,,,0.01,124.000000,,2013-01-13 21:33:00,
2013-01-13 16:43:00,66.0,56.0,-100.00,SE,130,3.0,17.0,70,0.00,,,0.01,124.000000,,2013-01-13 21:43:00,
2013-01-13 16:53:00,66.0,56.0,-100.00,SE,130,3.0,17.0,70,0.00,,,0.01,124.000000,,2013-01-13 21:53:00,
2013-01-13 17:03:00,66.0,56.0,-100.00,SE,130,3.0,17.0,70,0.00,,,0.01,124.000000,,2013-01-13 22:03:00,
2013-01-13 18:33:00,63.0,55.0,-100.00,SSW,194,4.0,11.0,74,-99.99,,,0.01,7.000000,,2013-01-13 23:33:00,
2013-01-13 18:43:00,63.0,55.0,-100.00,SSW,194,4.0,11.0,74,-99.99,,,0.01,7.000000,,2013-01-13 23:43:00,
2013-01-13 18:53:00,63.0,55.0,-100.00,SSW,194,4.0,11.0,74,-99.99,,,0.01,7.000000,,2013-01-13 23:53:00,
2013-01-13 19:03:00,63.0,55.0,-100.00,SSW,194,4.0,11.0,74,-99.99,,,0.01,7.000000,,2013-01-14 00:03:00,
2013-01-13 19:33:00,63.0,55.0,-100.00,SE,138,3.0,10.0,74,0.00,,,0.01,0.000000,,2013-01-14 00:33:00,
2013-01-13 19:43:00,63.0,55.0,-100.00,SE,138,3.0,10.0,74,0.00,,,0.01,0.000000,,2013-01-14 00:43:00,
2013-01-13 19:53:00,63.0,55.0,-100.00,SE,138,3.0,10.0,74,0.00,,,0.01,0.000000,,2013-01-14 00:53:00,
2013-01-13 20:03:00,63.0,55.0,-100.00,SE,138,3.0,10.0,74,0.00,,,0.01,0.000000,,2013-01-14 01:03:00,
2013-01-13 20:33:00,64.0,55.0,-100.00,ESE,112,2.0,9.0,72,0.00,,,0.01,0.000000,,2013-01-14 01:33:00,
2013-01-13 20:42:00,64.0,55.0,-100.00,ESE,112,2.0,9.0,72,0.00,,,0.01,0.000000,,2013-01-14 01:42:00,
2013-01-13 20:53:00,64.0,55.0,-100.00,ESE,112,2.0,9.0,72,0.00,,,0.01,0.000000,,2013-01-14 01:53:00,
2013-01-13 21:03:00,64.0,55.0,-100.00,ESE,112,2.0,9.0,72,0.00,,,0.01,0.000000,,2013-01-14 02:03:00,
2013-01-13 21:33:00,64.0,55.0,-100.00,ESE,118,2.0,10.0,73,0.00,,,0.01,0.000000,,2013-01-14 02:33:00,
2013-01-13 21:43:00,64.0,55.0,-100.00,ESE,118,2.0,10.0,73,0.00,,,0.01,0.000000,,2013-01-14 02:43:00,
2013-01-13 21:53:00,64.0,55.0,-100.00,ESE,118,2.0,10.0,73,0.00,,,0.01,0.000000,,2013-01-14 02:53:00,
2013-01-13 22:03:00,64.0,55.0,-100.00,ESE,118,2.0,10.0,73,0.00,,,0.01,0.000000,,2013-01-14 03:03:00,
2013-01-13 22:33:00,59.0,58.0,-100.00,SSE,153,1.0,5.0,95,0.14,,,0.15,0.000000,,2013-01-14 03:33:00,
2013-01-13 22:43:00,59.0,58.0,-100.00,SSE,153,1.0,5.0,95,0.14,,,0.15,0.000000,,2013-01-14 03:43:00,
2013-01-13 22:53:00,59.0,58.0,-100.00,SSE,153,1.0,5.0,95,0.14,,,0.15,0.000000,,2013-01-14 03:53:00,
2013-01-13 23:03:00,59.0,58.0,-100.00,SSE,153,1.0,5.0,95,0.14,,,0.15,0.000000,,2013-01-14 04:03:00,
2013-01-13 23:32:00,59.0,58.0,-100.00,SW,231,2.0,8.0,98,0.29,,,0.44,0.000000,,2013-01-14 04:32:00,
2013-01-13 23:42:00,59.0,58.0,-100.00,SW,231,2.0,8.0,98,0.29,,,0.44,0.000000,,2013-01-14 04:42:00,
2013-01-13 23:53:00,59.0,58.0,-100.00,SW,231,2.0,8.0,98,0.29,,,0.44,0.000000,,2013-01-14 04:53:00,